sensor_id;sensor_type;location;lat;lon;timestamp;temperature;humidity
65203;HTU21D;51788;45.124;38.966;2023-08-30T00:00:57;19.18;37.57
65203;HTU21D;51788;45.124;38.966;2023-08-30T00:03:23;19.17;37.60
65203;HTU21D;51788;45.124;38.966;2023-08-30T00:05:49;19.17;37.61
65203;HTU21D;51788;45.124;38.966;2023-08-30T00:08:15;19.12;37.71
65203;HTU21D;51788;45.124;38.966;2023-08-30T00:10:45;19.11;37.74
65203;HTU21D;51788;45.124;38.966;2023-08-30T00:13:12;19.09;37.79
65203;HTU21D;51788;45.124;38.966;2023-08-30T00:15:38;19.07;37.85
65203;HTU21D;51788;45.124;38.966;2023-08-30T00:18:04;19.06;37.87
65203;HTU21D;51788;45.124;38.966;2023-08-30T00:20:31;19.03;37.94
65203;HTU21D;51788;45.124;38.966;2023-08-30T00:22:57;18.99;38.01
65203;HTU21D;51788;45.124;38.966;2023-08-30T00:25:22;19.00;38.00
65203;HTU21D;51788;45.124;38.966;2023-08-30T00:27:48;18.96;38.11
65203;HTU21D;51788;45.124;38.966;2023-08-30T00:30:14;18.93;38.14
65203;HTU21D;51788;45.124;38.966;2023-08-30T00:32:40;18.88;38.20
65203;HTU21D;51788;45.124;38.966;2023-08-30T00:35:07;18.83;38.32
65203;HTU21D;51788;45.124;38.966;2023-08-30T00:37:33;18.81;38.41
65203;HTU21D;51788;45.124;38.966;2023-08-30T00:39:58;18.80;38.46
65203;HTU21D;51788;45.124;38.966;2023-08-30T00:42:26;18.77;38.49
65203;HTU21D;51788;45.124;38.966;2023-08-30T00:44:53;18.76;38.54
65203;HTU21D;51788;45.124;38.966;2023-08-30T00:47:20;18.76;38.57
65203;HTU21D;51788;45.124;38.966;2023-08-30T00:49:46;18.73;38.62
65203;HTU21D;51788;45.124;38.966;2023-08-30T00:52:12;18.72;38.65
65203;HTU21D;51788;45.124;38.966;2023-08-30T00:54:39;18.71;38.69
65203;HTU21D;51788;45.124;38.966;2023-08-30T00:57:05;18.66;38.78
65203;HTU21D;51788;45.124;38.966;2023-08-30T00:59:32;18.63;38.85
65203;HTU21D;51788;45.124;38.966;2023-08-30T01:01:59;18.58;38.94
65203;HTU21D;51788;45.124;38.966;2023-08-30T01:04:27;18.56;39.04
65203;HTU21D;51788;45.124;38.966;2023-08-30T01:06:54;18.51;39.10
65203;HTU21D;51788;45.124;38.966;2023-08-30T01:09:20;18.49;39.18
65203;HTU21D;51788;45.124;38.966;2023-08-30T01:14:21;18.41;39.40
65203;HTU21D;51788;45.124;38.966;2023-08-30T01:16:48;18.38;39.43
65203;HTU21D;51788;45.124;38.966;2023-08-30T01:19:26;18.34;39.54
65203;HTU21D;51788;45.124;38.966;2023-08-30T01:22:05;18.33;39.56
65203;HTU21D;51788;45.124;38.966;2023-08-30T01:24:45;18.29;39.63
65203;HTU21D;51788;45.124;38.966;2023-08-30T01:27:13;18.33;39.70
65203;HTU21D;51788;45.124;38.966;2023-08-30T01:29:43;18.37;39.67
65203;HTU21D;51788;45.124;38.966;2023-08-30T01:32:10;18.36;39.71
65203;HTU21D;51788;45.124;38.966;2023-08-30T01:34:39;18.32;39.78
65203;HTU21D;51788;45.124;38.966;2023-08-30T01:37:08;18.28;39.87
65203;HTU21D;51788;45.124;38.966;2023-08-30T01:39:36;18.27;39.93
65203;HTU21D;51788;45.124;38.966;2023-08-30T01:42:04;18.23;40.01
65203;HTU21D;51788;45.124;38.966;2023-08-30T01:44:31;18.17;40.11
65203;HTU21D;51788;45.124;38.966;2023-08-30T01:46:57;18.08;40.24
65203;HTU21D;51788;45.124;38.966;2023-08-30T01:49:28;18.00;40.42
65203;HTU21D;51788;45.124;38.966;2023-08-30T01:51:54;17.94;40.52
65203;HTU21D;51788;45.124;38.966;2023-08-30T01:54:24;17.89;40.67
65203;HTU21D;51788;45.124;38.966;2023-08-30T01:56:51;17.83;40.75
65203;HTU21D;51788;45.124;38.966;2023-08-30T01:59:17;17.80;40.83
65203;HTU21D;51788;45.124;38.966;2023-08-30T02:01:43;17.77;40.90
65203;HTU21D;51788;45.124;38.966;2023-08-30T02:04:09;17.76;40.95
65203;HTU21D;51788;45.124;38.966;2023-08-30T02:07:08;17.75;40.93
65203;HTU21D;51788;45.124;38.966;2023-08-30T02:09:29;17.76;40.84
65203;HTU21D;51788;45.124;38.966;2023-08-30T02:12:04;17.78;40.73
65203;HTU21D;51788;45.124;38.966;2023-08-30T02:14:32;17.84;40.55
65203;HTU21D;51788;45.124;38.966;2023-08-30T02:16:59;17.87;40.46
65203;HTU21D;51788;45.124;38.966;2023-08-30T02:19:25;17.89;40.39
65203;HTU21D;51788;45.124;38.966;2023-08-30T02:21:51;17.90;40.30
65203;HTU21D;51788;45.124;38.966;2023-08-30T02:24:17;17.91;40.28
65203;HTU21D;51788;45.124;38.966;2023-08-30T02:26:43;17.93;40.26
65203;HTU21D;51788;45.124;38.966;2023-08-30T02:29:09;17.90;40.30
65203;HTU21D;51788;45.124;38.966;2023-08-30T02:31:37;17.89;40.34
65203;HTU21D;51788;45.124;38.966;2023-08-30T02:34:03;17.89;40.36
65203;HTU21D;51788;45.124;38.966;2023-08-30T02:36:29;17.87;40.46
65203;HTU21D;51788;45.124;38.966;2023-08-30T02:38:56;17.88;40.60
65203;HTU21D;51788;45.124;38.966;2023-08-30T02:41:21;17.94;40.65
65203;HTU21D;51788;45.124;38.966;2023-08-30T02:43:48;17.99;40.65
65203;HTU21D;51788;45.124;38.966;2023-08-30T02:46:14;17.99;40.71
65203;HTU21D;51788;45.124;38.966;2023-08-30T02:48:40;18.00;40.78
65203;HTU21D;51788;45.124;38.966;2023-08-30T02:51:07;17.94;40.85
65203;HTU21D;51788;45.124;38.966;2023-08-30T02:53:33;17.91;41.01
65203;HTU21D;51788;45.124;38.966;2023-08-30T02:55:59;17.91;41.04
65203;HTU21D;51788;45.124;38.966;2023-08-30T02:58:25;17.88;41.07
65203;HTU21D;51788;45.124;38.966;2023-08-30T03:00:57;17.84;41.13
65203;HTU21D;51788;45.124;38.966;2023-08-30T03:03:23;17.80;41.22
65203;HTU21D;51788;45.124;38.966;2023-08-30T03:05:48;17.77;41.26
65203;HTU21D;51788;45.124;38.966;2023-08-30T03:08:14;17.81;41.29
65203;HTU21D;51788;45.124;38.966;2023-08-30T03:10:40;17.79;41.32
65203;HTU21D;51788;45.124;38.966;2023-08-30T03:13:07;17.80;41.32
65203;HTU21D;51788;45.124;38.966;2023-08-30T03:15:33;17.84;41.34
65203;HTU21D;51788;45.124;38.966;2023-08-30T03:18:00;17.85;41.38
65203;HTU21D;51788;45.124;38.966;2023-08-30T03:20:27;17.84;41.41
65203;HTU21D;51788;45.124;38.966;2023-08-30T03:22:56;17.87;41.42
65203;HTU21D;51788;45.124;38.966;2023-08-30T03:25:24;17.88;41.44
65203;HTU21D;51788;45.124;38.966;2023-08-30T03:27:49;17.89;41.44
65203;HTU21D;51788;45.124;38.966;2023-08-30T03:30:16;17.87;41.51
65203;HTU21D;51788;45.124;38.966;2023-08-30T03:32:42;17.81;41.67
65203;HTU21D;51788;45.124;38.966;2023-08-30T03:35:08;17.79;41.77
65203;HTU21D;51788;45.124;38.966;2023-08-30T03:37:34;17.76;41.77
65203;HTU21D;51788;45.124;38.966;2023-08-30T03:40:01;17.76;41.88
65203;HTU21D;51788;45.124;38.966;2023-08-30T03:42:27;17.78;41.89
65203;HTU21D;51788;45.124;38.966;2023-08-30T03:44:53;17.78;41.87
65203;HTU21D;51788;45.124;38.966;2023-08-30T03:47:19;17.80;41.87
65203;HTU21D;51788;45.124;38.966;2023-08-30T03:49:45;17.82;41.94
65203;HTU21D;51788;45.124;38.966;2023-08-30T03:52:13;17.89;41.86
65203;HTU21D;51788;45.124;38.966;2023-08-30T03:54:39;17.96;41.84
65203;HTU21D;51788;45.124;38.966;2023-08-30T03:57:05;18.04;41.79
65203;HTU21D;51788;45.124;38.966;2023-08-30T03:59:30;18.11;41.68
65203;HTU21D;51788;45.124;38.966;2023-08-30T04:01:56;18.13;41.66
65203;HTU21D;51788;45.124;38.966;2023-08-30T04:04:22;18.12;41.56
65203;HTU21D;51788;45.124;38.966;2023-08-30T04:06:48;18.13;41.62
65203;HTU21D;51788;45.124;38.966;2023-08-30T04:09:15;18.19;41.52
65203;HTU21D;51788;45.124;38.966;2023-08-30T04:11:41;18.23;41.53
65203;HTU21D;51788;45.124;38.966;2023-08-30T04:14:08;18.36;41.36
65203;HTU21D;51788;45.124;38.966;2023-08-30T04:16:34;18.44;41.25
65203;HTU21D;51788;45.124;38.966;2023-08-30T04:19:00;18.54;41.13
65203;HTU21D;51788;45.124;38.966;2023-08-30T04:21:28;18.63;40.99
65203;HTU21D;51788;45.124;38.966;2023-08-30T04:23:54;18.70;40.84
65203;HTU21D;51788;45.124;38.966;2023-08-30T04:26:21;18.79;40.57
65203;HTU21D;51788;45.124;38.966;2023-08-30T04:28:47;18.85;40.45
65203;HTU21D;51788;45.124;38.966;2023-08-30T04:31:13;18.89;40.42
65203;HTU21D;51788;45.124;38.966;2023-08-30T04:33:39;18.97;40.42
65203;HTU21D;51788;45.124;38.966;2023-08-30T04:36:05;19.10;40.35
65203;HTU21D;51788;45.124;38.966;2023-08-30T04:38:31;19.20;40.32
65203;HTU21D;51788;45.124;38.966;2023-08-30T04:40:58;19.29;40.08
65203;HTU21D;51788;45.124;38.966;2023-08-30T04:43:25;19.37;39.90
65203;HTU21D;51788;45.124;38.966;2023-08-30T04:45:51;19.42;39.87
65203;HTU21D;51788;45.124;38.966;2023-08-30T04:48:17;19.54;39.75
65203;HTU21D;51788;45.124;38.966;2023-08-30T04:50:43;19.63;39.43
65203;HTU21D;51788;45.124;38.966;2023-08-30T04:53:09;19.73;39.42
65203;HTU21D;51788;45.124;38.966;2023-08-30T04:55:35;19.80;39.27
65203;HTU21D;51788;45.124;38.966;2023-08-30T04:58:01;19.86;39.17
65203;HTU21D;51788;45.124;38.966;2023-08-30T05:00:33;19.91;39.03
65203;HTU21D;51788;45.124;38.966;2023-08-30T05:02:58;19.98;39.19
65203;HTU21D;51788;45.124;38.966;2023-08-30T05:05:26;20.12;39.12
65203;HTU21D;51788;45.124;38.966;2023-08-30T05:07:52;20.19;39.08
65203;HTU21D;51788;45.124;38.966;2023-08-30T05:10:18;20.32;38.79
65203;HTU21D;51788;45.124;38.966;2023-08-30T05:12:44;20.40;38.61
65203;HTU21D;51788;45.124;38.966;2023-08-30T05:15:15;20.49;38.64
65203;HTU21D;51788;45.124;38.966;2023-08-30T05:17:41;20.63;38.70
65203;HTU21D;51788;45.124;38.966;2023-08-30T05:20:07;20.76;38.25
65203;HTU21D;51788;45.124;38.966;2023-08-30T05:22:33;20.84;38.11
65203;HTU21D;51788;45.124;38.966;2023-08-30T05:24:59;20.89;38.17
65203;HTU21D;51788;45.124;38.966;2023-08-30T05:27:26;21.00;37.98
65203;HTU21D;51788;45.124;38.966;2023-08-30T05:29:53;21.04;37.85
65203;HTU21D;51788;45.124;38.966;2023-08-30T05:32:19;21.11;37.78
65203;HTU21D;51788;45.124;38.966;2023-08-30T05:35:04;21.18;37.58
65203;HTU21D;51788;45.124;38.966;2023-08-30T05:37:46;21.27;37.56
65203;HTU21D;51788;45.124;38.966;2023-08-30T05:40:35;21.34;37.33
65203;HTU21D;51788;45.124;38.966;2023-08-30T05:43:02;21.39;37.25
65203;HTU21D;51788;45.124;38.966;2023-08-30T05:45:28;21.47;37.33
65203;HTU21D;51788;45.124;38.966;2023-08-30T05:47:54;21.59;37.44
65203;HTU21D;51788;45.124;38.966;2023-08-30T05:50:20;21.65;37.48
65203;HTU21D;51788;45.124;38.966;2023-08-30T05:52:46;21.78;37.57
65203;HTU21D;51788;45.124;38.966;2023-08-30T05:55:12;21.89;37.33
65203;HTU21D;51788;45.124;38.966;2023-08-30T05:57:38;21.94;37.48
65203;HTU21D;51788;45.124;38.966;2023-08-30T06:00:04;22.01;37.55
65203;HTU21D;51788;45.124;38.966;2023-08-30T06:02:40;22.13;37.46
65203;HTU21D;51788;45.124;38.966;2023-08-30T06:05:06;22.25;37.38
65203;HTU21D;51788;45.124;38.966;2023-08-30T06:07:32;22.31;37.39
65203;HTU21D;51788;45.124;38.966;2023-08-30T06:09:58;22.38;37.40
65203;HTU21D;51788;45.124;38.966;2023-08-30T06:12:24;22.50;37.37
65203;HTU21D;51788;45.124;38.966;2023-08-30T06:14:51;22.57;37.25
65203;HTU21D;51788;45.124;38.966;2023-08-30T06:17:19;22.60;37.20
65203;HTU21D;51788;45.124;38.966;2023-08-30T06:19:46;22.67;37.18
65203;HTU21D;51788;45.124;38.966;2023-08-30T06:22:12;22.77;36.89
65203;HTU21D;51788;45.124;38.966;2023-08-30T06:24:38;22.82;36.93
65203;HTU21D;51788;45.124;38.966;2023-08-30T06:27:04;22.91;36.97
65203;HTU21D;51788;45.124;38.966;2023-08-30T06:29:30;22.94;36.72
65203;HTU21D;51788;45.124;38.966;2023-08-30T06:31:57;22.97;36.66
65203;HTU21D;51788;45.124;38.966;2023-08-30T06:34:23;23.03;36.60
65203;HTU21D;51788;45.124;38.966;2023-08-30T06:36:49;23.08;36.51
65203;HTU21D;51788;45.124;38.966;2023-08-30T06:39:15;23.12;36.59
65203;HTU21D;51788;45.124;38.966;2023-08-30T06:41:41;23.23;36.82
65203;HTU21D;51788;45.124;38.966;2023-08-30T06:44:07;23.39;36.72
65203;HTU21D;51788;45.124;38.966;2023-08-30T06:46:33;23.52;36.40
65203;HTU21D;51788;45.124;38.966;2023-08-30T06:48:59;23.61;36.50
65203;HTU21D;51788;45.124;38.966;2023-08-30T06:51:24;23.72;36.15
65203;HTU21D;51788;45.124;38.966;2023-08-30T06:53:51;23.81;35.88
65203;HTU21D;51788;45.124;38.966;2023-08-30T06:56:17;23.84;35.65
65203;HTU21D;51788;45.124;38.966;2023-08-30T06:58:42;23.86;35.60
65203;HTU21D;51788;45.124;38.966;2023-08-30T07:01:08;23.91;35.76
65203;HTU21D;51788;45.124;38.966;2023-08-30T07:03:34;24.01;35.57
65203;HTU21D;51788;45.124;38.966;2023-08-30T07:06:00;24.08;35.25
65203;HTU21D;51788;45.124;38.966;2023-08-30T07:08:26;24.08;35.24
65203;HTU21D;51788;45.124;38.966;2023-08-30T07:10:52;24.17;35.22
65203;HTU21D;51788;45.124;38.966;2023-08-30T07:13:18;24.28;35.14
65203;HTU21D;51788;45.124;38.966;2023-08-30T07:15:44;24.38;35.04
65203;HTU21D;51788;45.124;38.966;2023-08-30T07:18:10;24.46;34.83
65203;HTU21D;51788;45.124;38.966;2023-08-30T07:20:38;24.57;34.79
65203;HTU21D;51788;45.124;38.966;2023-08-30T07:23:04;24.70;34.82
65203;HTU21D;51788;45.124;38.966;2023-08-30T07:25:31;24.82;34.65
65203;HTU21D;51788;45.124;38.966;2023-08-30T07:27:59;24.87;34.82
65203;HTU21D;51788;45.124;38.966;2023-08-30T07:30:25;24.97;34.94
65203;HTU21D;51788;45.124;38.966;2023-08-30T07:32:51;25.10;34.77
65203;HTU21D;51788;45.124;38.966;2023-08-30T07:35:17;25.15;34.72
65203;HTU21D;51788;45.124;38.966;2023-08-30T07:37:43;25.27;35.00
65203;HTU21D;51788;45.124;38.966;2023-08-30T07:40:10;25.39;34.95
65203;HTU21D;51788;45.124;38.966;2023-08-30T07:42:36;25.51;34.86
65203;HTU21D;51788;45.124;38.966;2023-08-30T07:45:02;25.58;35.04
65203;HTU21D;51788;45.124;38.966;2023-08-30T07:47:29;25.67;35.26
65203;HTU21D;51788;45.124;38.966;2023-08-30T07:49:55;25.78;35.26
65203;HTU21D;51788;45.124;38.966;2023-08-30T07:52:21;25.88;35.36
65203;HTU21D;51788;45.124;38.966;2023-08-30T07:54:48;26.03;35.27
65203;HTU21D;51788;45.124;38.966;2023-08-30T07:57:14;26.08;35.14
65203;HTU21D;51788;45.124;38.966;2023-08-30T07:59:40;26.13;35.17
65203;HTU21D;51788;45.124;38.966;2023-08-30T08:02:07;26.19;35.11
65203;HTU21D;51788;45.124;38.966;2023-08-30T08:04:36;26.23;35.30
65203;HTU21D;51788;45.124;38.966;2023-08-30T08:07:03;26.37;35.39
65203;HTU21D;51788;45.124;38.966;2023-08-30T08:09:30;26.50;35.29
65203;HTU21D;51788;45.124;38.966;2023-08-30T08:11:57;26.60;35.24
65203;HTU21D;51788;45.124;38.966;2023-08-30T08:14:25;26.73;35.18
65203;HTU21D;51788;45.124;38.966;2023-08-30T08:16:51;26.85;35.18
65203;HTU21D;51788;45.124;38.966;2023-08-30T08:19:17;26.94;34.85
65203;HTU21D;51788;45.124;38.966;2023-08-30T08:21:43;27.02;34.93
65203;HTU21D;51788;45.124;38.966;2023-08-30T08:24:09;27.09;35.05
65203;HTU21D;51788;45.124;38.966;2023-08-30T08:26:35;27.20;35.15
65203;HTU21D;51788;45.124;38.966;2023-08-30T08:29:01;27.31;35.11
65203;HTU21D;51788;45.124;38.966;2023-08-30T08:31:28;27.41;34.73
65203;HTU21D;51788;45.124;38.966;2023-08-30T08:34:10;27.52;34.51
65203;HTU21D;51788;45.124;38.966;2023-08-30T08:36:41;27.59;34.57
65203;HTU21D;51788;45.124;38.966;2023-08-30T08:39:08;27.61;34.66
65203;HTU21D;51788;45.124;38.966;2023-08-30T08:41:42;27.71;34.40
65203;HTU21D;51788;45.124;38.966;2023-08-30T08:44:09;27.81;34.13
65203;HTU21D;51788;45.124;38.966;2023-08-30T08:46:37;27.88;33.65
65203;HTU21D;51788;45.124;38.966;2023-08-30T08:49:24;27.89;33.73
65203;HTU21D;51788;45.124;38.966;2023-08-30T08:51:54;28.04;33.60
65203;HTU21D;51788;45.124;38.966;2023-08-30T08:54:20;28.11;33.43
65203;HTU21D;51788;45.124;38.966;2023-08-30T08:56:46;28.17;33.00
65203;HTU21D;51788;45.124;38.966;2023-08-30T08:59:12;28.19;32.31
65203;HTU21D;51788;45.124;38.966;2023-08-30T09:01:39;28.19;32.44
65203;HTU21D;51788;45.124;38.966;2023-08-30T09:04:09;28.20;32.28
65203;HTU21D;51788;45.124;38.966;2023-08-30T09:06:36;28.20;32.47
65203;HTU21D;51788;45.124;38.966;2023-08-30T09:09:03;28.26;32.70
65203;HTU21D;51788;45.124;38.966;2023-08-30T09:11:29;28.39;32.51
65203;HTU21D;51788;45.124;38.966;2023-08-30T09:13:55;28.47;32.40
65203;HTU21D;51788;45.124;38.966;2023-08-30T09:16:21;28.58;31.69
65203;HTU21D;51788;45.124;38.966;2023-08-30T09:19:01;28.57;31.59
65203;HTU21D;51788;45.124;38.966;2023-08-30T09:21:27;28.60;31.77
65203;HTU21D;51788;45.124;38.966;2023-08-30T09:24:02;28.61;31.62
65203;HTU21D;51788;45.124;38.966;2023-08-30T09:26:29;28.68;31.96
65203;HTU21D;51788;45.124;38.966;2023-08-30T09:29:07;28.76;31.64
65203;HTU21D;51788;45.124;38.966;2023-08-30T09:31:39;28.87;31.61
65203;HTU21D;51788;45.124;38.966;2023-08-30T09:34:07;28.95;31.55
65203;HTU21D;51788;45.124;38.966;2023-08-30T09:36:37;28.98;31.36
65203;HTU21D;51788;45.124;38.966;2023-08-30T09:39:13;29.00;30.69
65203;HTU21D;51788;45.124;38.966;2023-08-30T09:41:44;29.04;30.83
65203;HTU21D;51788;45.124;38.966;2023-08-30T09:44:13;29.17;30.64
65203;HTU21D;51788;45.124;38.966;2023-08-30T09:46:44;29.20;30.42
65203;HTU21D;51788;45.124;38.966;2023-08-30T09:49:12;29.20;30.54
65203;HTU21D;51788;45.124;38.966;2023-08-30T09:51:40;29.20;30.34
65203;HTU21D;51788;45.124;38.966;2023-08-30T09:54:17;29.19;30.48
65203;HTU21D;51788;45.124;38.966;2023-08-30T09:56:44;29.24;30.23
65203;HTU21D;51788;45.124;38.966;2023-08-30T09:59:12;29.32;30.42
65203;HTU21D;51788;45.124;38.966;2023-08-30T10:01:39;29.41;30.28
65203;HTU21D;51788;45.124;38.966;2023-08-30T10:04:07;29.46;30.09
65203;HTU21D;51788;45.124;38.966;2023-08-30T10:06:35;29.49;30.06
65203;HTU21D;51788;45.124;38.966;2023-08-30T10:09:06;29.90;29.64
65203;HTU21D;51788;45.124;38.966;2023-08-30T10:11:36;31.19;27.78
65203;HTU21D;51788;45.124;38.966;2023-08-30T10:14:06;30.93;28.45
65203;HTU21D;51788;45.124;38.966;2023-08-30T10:16:46;30.50;29.03
65203;HTU21D;51788;45.124;38.966;2023-08-30T10:21:44;30.30;29.29
65203;HTU21D;51788;45.124;38.966;2023-08-30T10:24:14;30.15;29.13
65203;HTU21D;51788;45.124;38.966;2023-08-30T10:26:43;30.17;29.20
65203;HTU21D;51788;45.124;38.966;2023-08-30T10:29:11;30.11;29.41
65203;HTU21D;51788;45.124;38.966;2023-08-30T10:31:38;30.09;29.07
65203;HTU21D;51788;45.124;38.966;2023-08-30T10:34:13;29.98;29.27
65203;HTU21D;51788;45.124;38.966;2023-08-30T10:36:42;30.04;29.55
65203;HTU21D;51788;45.124;38.966;2023-08-30T10:39:12;30.03;29.26
65203;HTU21D;51788;45.124;38.966;2023-08-30T10:41:54;30.08;29.05
65203;HTU21D;51788;45.124;38.966;2023-08-30T10:44:23;30.09;29.13
65203;HTU21D;51788;45.124;38.966;2023-08-30T10:46:53;30.11;29.26
65203;HTU21D;51788;45.124;38.966;2023-08-30T10:49:20;30.15;29.39
65203;HTU21D;51788;45.124;38.966;2023-08-30T10:51:56;30.21;28.86
65203;HTU21D;51788;45.124;38.966;2023-08-30T10:54:36;30.22;29.10
65203;HTU21D;51788;45.124;38.966;2023-08-30T10:57:04;30.23;29.06
65203;HTU21D;51788;45.124;38.966;2023-08-30T10:59:30;30.21;29.28
65203;HTU21D;51788;45.124;38.966;2023-08-30T11:01:56;30.27;29.32
65203;HTU21D;51788;45.124;38.966;2023-08-30T11:04:22;30.34;29.49
65203;HTU21D;51788;45.124;38.966;2023-08-30T11:06:50;30.40;29.56
65203;HTU21D;51788;45.124;38.966;2023-08-30T11:09:22;30.47;29.10
65203;HTU21D;51788;45.124;38.966;2023-08-30T11:11:49;30.47;29.20
65203;HTU21D;51788;45.124;38.966;2023-08-30T11:14:17;30.48;29.33
65203;HTU21D;51788;45.124;38.966;2023-08-30T11:16:44;30.55;29.09
65203;HTU21D;51788;45.124;38.966;2023-08-30T11:19:11;30.60;29.46
65203;HTU21D;51788;45.124;38.966;2023-08-30T11:21:39;30.62;29.48
65203;HTU21D;51788;45.124;38.966;2023-08-30T11:24:06;30.65;29.23
65203;HTU21D;51788;45.124;38.966;2023-08-30T11:26:33;30.63;29.16
65203;HTU21D;51788;45.124;38.966;2023-08-30T11:29:06;30.60;29.32
65203;HTU21D;51788;45.124;38.966;2023-08-30T11:31:33;30.64;29.03
65203;HTU21D;51788;45.124;38.966;2023-08-30T11:34:00;30.64;28.88
65203;HTU21D;51788;45.124;38.966;2023-08-30T11:36:30;30.67;29.28
65203;HTU21D;51788;45.124;38.966;2023-08-30T11:38:57;30.70;29.30
65203;HTU21D;51788;45.124;38.966;2023-08-30T11:41:24;30.71;29.14
65203;HTU21D;51788;45.124;38.966;2023-08-30T11:43:54;30.70;29.22
65203;HTU21D;51788;45.124;38.966;2023-08-30T11:46:21;30.71;29.27
65203;HTU21D;51788;45.124;38.966;2023-08-30T11:48:48;30.77;29.10
65203;HTU21D;51788;45.124;38.966;2023-08-30T11:51:16;30.81;29.08
65203;HTU21D;51788;45.124;38.966;2023-08-30T11:53:44;30.85;28.82
65203;HTU21D;51788;45.124;38.966;2023-08-30T11:56:10;30.90;28.84
65203;HTU21D;51788;45.124;38.966;2023-08-30T11:58:37;30.93;29.03
65203;HTU21D;51788;45.124;38.966;2023-08-30T12:01:04;30.93;28.91
65203;HTU21D;51788;45.124;38.966;2023-08-30T12:03:31;30.91;28.98
65203;HTU21D;51788;45.124;38.966;2023-08-30T12:05:58;30.94;28.41
65203;HTU21D;51788;45.124;38.966;2023-08-30T12:08:33;30.84;28.74
65203;HTU21D;51788;45.124;38.966;2023-08-30T12:10:59;30.82;29.09
65203;HTU21D;51788;45.124;38.966;2023-08-30T12:13:31;30.90;29.13
65203;HTU21D;51788;45.124;38.966;2023-08-30T12:15:58;30.90;29.22
65203;HTU21D;51788;45.124;38.966;2023-08-30T12:18:34;30.89;29.28
65203;HTU21D;51788;45.124;38.966;2023-08-30T12:21:02;30.89;29.55
65203;HTU21D;51788;45.124;38.966;2023-08-30T12:23:30;30.97;29.49
65203;HTU21D;51788;45.124;38.966;2023-08-30T12:26:00;31.02;29.13
65203;HTU21D;51788;45.124;38.966;2023-08-30T12:28:27;31.04;29.10
65203;HTU21D;51788;45.124;38.966;2023-08-30T12:30:54;31.04;29.08
65203;HTU21D;51788;45.124;38.966;2023-08-30T12:33:21;31.01;28.82
65203;HTU21D;51788;45.124;38.966;2023-08-30T12:35:47;30.94;29.03
65203;HTU21D;51788;45.124;38.966;2023-08-30T12:38:13;30.97;29.07
65203;HTU21D;51788;45.124;38.966;2023-08-30T12:40:53;30.95;28.97
65203;HTU21D;51788;45.124;38.966;2023-08-30T12:43:20;30.96;28.84
65203;HTU21D;51788;45.124;38.966;2023-08-30T12:45:47;30.99;28.68
65203;HTU21D;51788;45.124;38.966;2023-08-30T12:48:14;30.97;28.92
65203;HTU21D;51788;45.124;38.966;2023-08-30T12:50:44;30.97;29.13
65203;HTU21D;51788;45.124;38.966;2023-08-30T12:53:11;30.98;29.22
65203;HTU21D;51788;45.124;38.966;2023-08-30T12:55:37;30.96;29.38
65203;HTU21D;51788;45.124;38.966;2023-08-30T12:58:07;30.95;29.54
65203;HTU21D;51788;45.124;38.966;2023-08-30T13:00:33;30.94;29.45
65203;HTU21D;51788;45.124;38.966;2023-08-30T13:03:00;30.96;29.43
65203;HTU21D;51788;45.124;38.966;2023-08-30T13:05:26;31.02;29.27
65203;HTU21D;51788;45.124;38.966;2023-08-30T13:07:52;31.08;28.98
65203;HTU21D;51788;45.124;38.966;2023-08-30T13:10:18;31.12;29.06
65203;HTU21D;51788;45.124;38.966;2023-08-30T13:12:44;31.14;29.09
65203;HTU21D;51788;45.124;38.966;2023-08-30T13:15:11;31.11;29.10
65203;HTU21D;51788;45.124;38.966;2023-08-30T13:17:37;31.10;29.10
65203;HTU21D;51788;45.124;38.966;2023-08-30T13:20:03;31.19;28.81
65203;HTU21D;51788;45.124;38.966;2023-08-30T13:22:30;31.21;28.46
65203;HTU21D;51788;45.124;38.966;2023-08-30T13:24:56;31.15;28.59
65203;HTU21D;51788;45.124;38.966;2023-08-30T13:27:22;31.14;28.91
65203;HTU21D;51788;45.124;38.966;2023-08-30T13:29:48;31.13;29.31
65203;HTU21D;51788;45.124;38.966;2023-08-30T13:32:14;31.09;29.62
65203;HTU21D;51788;45.124;38.966;2023-08-30T13:34:40;31.11;29.84
65203;HTU21D;51788;45.124;38.966;2023-08-30T13:37:09;31.09;29.68
65203;HTU21D;51788;45.124;38.966;2023-08-30T13:39:35;31.12;29.65
65203;HTU21D;51788;45.124;38.966;2023-08-30T13:42:01;31.12;29.84
65203;HTU21D;51788;45.124;38.966;2023-08-30T13:44:27;31.11;30.21
65203;HTU21D;51788;45.124;38.966;2023-08-30T13:46:53;31.10;30.14
65203;HTU21D;51788;45.124;38.966;2023-08-30T13:49:19;31.12;30.00
65203;HTU21D;51788;45.124;38.966;2023-08-30T13:51:46;31.12;30.09
65203;HTU21D;51788;45.124;38.966;2023-08-30T13:54:12;31.05;30.37
65203;HTU21D;51788;45.124;38.966;2023-08-30T13:56:38;31.04;30.63
65203;HTU21D;51788;45.124;38.966;2023-08-30T13:59:04;31.08;30.65
65203;HTU21D;51788;45.124;38.966;2023-08-30T14:01:32;31.07;30.50
65203;HTU21D;51788;45.124;38.966;2023-08-30T14:03:58;31.08;30.37
65203;HTU21D;51788;45.124;38.966;2023-08-30T14:06:24;31.08;30.36
65203;HTU21D;51788;45.124;38.966;2023-08-30T14:08:50;31.07;30.62
65203;HTU21D;51788;45.124;38.966;2023-08-30T14:11:16;31.07;31.12
65203;HTU21D;51788;45.124;38.966;2023-08-30T14:13:42;31.02;31.05
65203;HTU21D;51788;45.124;38.966;2023-08-30T14:16:08;31.04;30.84
65203;HTU21D;51788;45.124;38.966;2023-08-30T14:18:35;31.05;30.89
65203;HTU21D;51788;45.124;38.966;2023-08-30T14:21:02;31.05;31.14
65203;HTU21D;51788;45.124;38.966;2023-08-30T14:23:28;31.04;31.20
65203;HTU21D;51788;45.124;38.966;2023-08-30T14:26:03;31.02;31.05
65203;HTU21D;51788;45.124;38.966;2023-08-30T14:28:37;30.99;30.89
65203;HTU21D;51788;45.124;38.966;2023-08-30T14:31:03;30.92;31.06
65203;HTU21D;51788;45.124;38.966;2023-08-30T14:33:31;30.85;31.16
65203;HTU21D;51788;45.124;38.966;2023-08-30T14:35:57;30.84;31.08
65203;HTU21D;51788;45.124;38.966;2023-08-30T14:38:23;30.83;30.77
65203;HTU21D;51788;45.124;38.966;2023-08-30T14:40:56;30.87;30.35
65203;HTU21D;51788;45.124;38.966;2023-08-30T14:43:22;30.85;30.38
65203;HTU21D;51788;45.124;38.966;2023-08-30T14:45:48;30.83;30.46
65203;HTU21D;51788;45.124;38.966;2023-08-30T14:48:14;30.82;30.35
65203;HTU21D;51788;45.124;38.966;2023-08-30T14:50:40;30.78;30.38
65203;HTU21D;51788;45.124;38.966;2023-08-30T14:53:06;30.78;30.17
65203;HTU21D;51788;45.124;38.966;2023-08-30T14:55:32;30.74;30.19
65203;HTU21D;51788;45.124;38.966;2023-08-30T14:57:59;30.69;30.22
65203;HTU21D;51788;45.124;38.966;2023-08-30T15:00:25;30.66;30.13
65203;HTU21D;51788;45.124;38.966;2023-08-30T15:02:51;30.62;30.21
65203;HTU21D;51788;45.124;38.966;2023-08-30T15:05:17;30.61;30.14
65203;HTU21D;51788;45.124;38.966;2023-08-30T15:07:44;30.60;29.42
65203;HTU21D;51788;45.124;38.966;2023-08-30T15:10:10;30.61;29.04